ADDS TAF Board (Experimental) INFO Settings
IDs: Format: Expanded Condensed

KSFO - San Francisco Intl, CA, US

Issued at 0520 UTC 27 May 2016
Updated at: 0625 UTC 27 May 2016
Time0556Z 27/07Z 27/08Z 27/09Z 27/10Z 27/11Z 27/12Z 27/13Z 27/14Z 27/15Z 27/16Z 27/17Z 27/18Z 27/19Z
Type OBS PRVL
  [TEMP]  
PRVL
  [TEMP]  
PRVL
  [TEMP]  
PRVL
  [TEMP]  
PRVL PRVL PRVL PRVL PRVL PRVL PRVL PRVL PRVL
VIS 10 >6 >6 >6 >6 >6 >6 >6 >6 >6 >6 >6 >6 >6
CIG -- --
  [12]  
--
  [12]  
--
  [12]  
--
  [12]  
11 11 11 11 -- -- -- -- --
Cover FEW SCT
  [BKN]  
SCT
  [BKN]  
SCT
  [BKN]  
SCT
  [BKN]  
BKN BKN BKN BKN SCT SCT SCT SCT FEW
FltCat VFR VFR
  [MVFR]  
VFR
  [MVFR]  
VFR
  [MVFR]  
VFR
  [MVFR]  
MVFR MVFR MVFR MVFR VFR VFR VFR VFR VFR
WX -- --
  [--]  
--
  [--]  
--
  [--]  
--
  [--]  
-- -- -- -- -- -- -- -- --
WDir 260 250
[250]
250
[250]
250
[250]
250
[250]
240 240 240 240 VRB VRB VRB VRB 280
WSpd 13 7
  [7]  
7
  [7]  
7
  [7]  
7
  [7]  
5 5 5 5 3 3 3 3 16
WGst -- --
  [--]  
--
  [--]  
--
  [--]  
--
  [--]  
-- -- -- -- -- -- -- -- 20
R01/19
XWnd 10 5 5 5 5 3 3 3 3 VRB VRB VRB VRB 15
XGst -- 0 0 0 0 -- -- -- -- -- -- -- -- 19
HWnd -8 -5 -5 -5 -5 -4 -4 -4 -4 VRB VRB VRB VRB -5
HGst -- 0 0 0 0 -- -- -- -- -- -- -- -- -6
R10/28
XWnd -8 -5 -5 -5 -5 -4 -4 -4 -4 VRB VRB VRB VRB -5
XGst -- 0 0 0 0 -- -- -- -- -- -- -- -- -6
HWnd -10 -5 -5 -5 -5 -3 -3 -3 -3 VRB VRB VRB VRB -15
HGst -- 0 0 0 0 -- -- -- -- -- -- -- -- -19

NOTE: TEMPO conditions in [brackets]. Keep in mind TEMPO conditions might be better (lower impact) than prevailing conditions.

Raw TAF
KSFO 270520Z 2706/2812 27015KT P6SM FEW010
  FM270700 25007KT P6SM SCT012
  TEMPO 2707/2711 BKN012
  FM271100 24005KT P6SM BKN011
  FM271500 VRB03KT P6SM SCT015
  FM271900 28016G20KT P6SM FEW020
  FM280400 28010KT P6SM SCT012


Raw METAR
KSFO 270556Z 26013KT 10SM FEW010 13/10 A3002 RMK AO2 SLP166 T01330100 10172 20133 50001 $
KSFO 270456Z 26010KT 10SM FEW010 13/10 A3002 RMK AO2 SLP167 T01330100 $
KSFO 270356Z 25012KT 10SM FEW010 13/09 A3002 RMK AO2 SLP164 T01330094 $

METAR Board
Radar Display
Forecast Discussion

TAF Board Legend

Potential Impact
Threat None Slight Moderate High
Visibility (sm) ≥5.1 5.1>X≥3 3>X≥1 <1
Ceiling (100 ft) ≥30.1 30.1>X≥10 10>X≥5 <5
Wind Speed (kt) <10 10≤X<20 20≤X<30 ≥30
Wind Gust (kt) <15 15≤X<25 25≤X<35 ≥35
Weather No Wx Reported VCTS,-TS,-FZRA,SN TS,FZRA +TS,+FZRA,+SN